sensor_id;sensor_type;location;lat;lon;timestamp;temperature;humidity
47765;DHT22;33529;49.242;8.670;2022-10-31T00:01:22;11.10;99.90
47765;DHT22;33529;49.242;8.670;2022-10-31T00:03:49;11.10;99.90
47765;DHT22;33529;49.242;8.670;2022-10-31T00:06:16;11.20;99.90
47765;DHT22;33529;49.242;8.670;2022-10-31T00:08:52;11.30;99.90
47765;DHT22;33529;49.242;8.670;2022-10-31T00:11:19;11.30;99.90
47765;DHT22;33529;49.242;8.670;2022-10-31T00:13:46;11.40;99.90
47765;DHT22;33529;49.242;8.670;2022-10-31T00:16:18;11.50;99.90
47765;DHT22;33529;49.242;8.670;2022-10-31T00:18:54;11.50;99.90
47765;DHT22;33529;49.242;8.670;2022-10-31T00:21:21;11.50;99.90
47765;DHT22;33529;49.242;8.670;2022-10-31T00:23:48;11.60;99.90
47765;DHT22;33529;49.242;8.670;2022-10-31T00:26:15;11.60;99.90
47765;DHT22;33529;49.242;8.670;2022-10-31T00:28:42;11.60;99.90
47765;DHT22;33529;49.242;8.670;2022-10-31T00:31:11;11.60;99.90
47765;DHT22;33529;49.242;8.670;2022-10-31T00:33:39;11.60;99.90
47765;DHT22;33529;49.242;8.670;2022-10-31T00:36:07;11.50;99.90
47765;DHT22;33529;49.242;8.670;2022-10-31T00:38:34;11.60;99.90
47765;DHT22;33529;49.242;8.670;2022-10-31T00:41:01;11.60;99.90
47765;DHT22;33529;49.242;8.670;2022-10-31T00:43:28;11.60;99.90
47765;DHT22;33529;49.242;8.670;2022-10-31T00:45:55;11.50;99.90
47765;DHT22;33529;49.242;8.670;2022-10-31T00:48:23;11.40;99.90
47765;DHT22;33529;49.242;8.670;2022-10-31T00:50:52;11.50;99.90
47765;DHT22;33529;49.242;8.670;2022-10-31T00:53:19;11.40;99.90
47765;DHT22;33529;49.242;8.670;2022-10-31T00:55:46;11.50;99.90
47765;DHT22;33529;49.242;8.670;2022-10-31T00:58:13;11.50;99.90
47765;DHT22;33529;49.242;8.670;2022-10-31T01:00:47;11.50;99.90
47765;DHT22;33529;49.242;8.670;2022-10-31T01:03:27;11.50;99.90
47765;DHT22;33529;49.242;8.670;2022-10-31T01:06:07;11.40;99.90
47765;DHT22;33529;49.242;8.670;2022-10-31T01:08:36;11.30;99.90
47765;DHT22;33529;49.242;8.670;2022-10-31T01:11:12;11.30;99.90
47765;DHT22;33529;49.242;8.670;2022-10-31T01:13:40;11.40;99.90
47765;DHT22;33529;49.242;8.670;2022-10-31T01:16:09;11.40;99.90
47765;DHT22;33529;49.242;8.670;2022-10-31T01:18:36;11.40;99.90
47765;DHT22;33529;49.242;8.670;2022-10-31T01:21:06;11.40;99.90
47765;DHT22;33529;49.242;8.670;2022-10-31T01:23:34;11.40;99.90
47765;DHT22;33529;49.242;8.670;2022-10-31T01:26:08;11.30;99.90
47765;DHT22;33529;49.242;8.670;2022-10-31T01:28:37;11.30;99.90
47765;DHT22;33529;49.242;8.670;2022-10-31T01:31:06;11.30;99.90
47765;DHT22;33529;49.242;8.670;2022-10-31T01:33:34;11.30;99.90
47765;DHT22;33529;49.242;8.670;2022-10-31T01:36:10;11.30;99.90
47765;DHT22;33529;49.242;8.670;2022-10-31T01:38:37;11.30;99.90
47765;DHT22;33529;49.242;8.670;2022-10-31T01:41:04;11.30;99.90
47765;DHT22;33529;49.242;8.670;2022-10-31T01:43:51;11.20;99.90
47765;DHT22;33529;49.242;8.670;2022-10-31T01:46:34;11.20;99.90
47765;DHT22;33529;49.242;8.670;2022-10-31T01:49:12;11.20;99.90
47765;DHT22;33529;49.242;8.670;2022-10-31T01:51:49;11.10;99.90
47765;DHT22;33529;49.242;8.670;2022-10-31T01:54:19;11.10;99.90
47765;DHT22;33529;49.242;8.670;2022-10-31T01:56:50;11.00;99.90
47765;DHT22;33529;49.242;8.670;2022-10-31T01:59:20;11.10;99.90
47765;DHT22;33529;49.242;8.670;2022-10-31T02:01:50;11.00;99.90
47765;DHT22;33529;49.242;8.670;2022-10-31T02:04:19;10.90;99.90
47765;DHT22;33529;49.242;8.670;2022-10-31T02:06:51;10.90;99.90
47765;DHT22;33529;49.242;8.670;2022-10-31T02:09:19;10.90;99.90
47765;DHT22;33529;49.242;8.670;2022-10-31T02:11:52;10.90;99.90
47765;DHT22;33529;49.242;8.670;2022-10-31T02:14:22;10.90;99.90
47765;DHT22;33529;49.242;8.670;2022-10-31T02:16:51;10.90;99.90
47765;DHT22;33529;49.242;8.670;2022-10-31T02:19:34;10.90;99.90
47765;DHT22;33529;49.242;8.670;2022-10-31T02:22:10;10.90;99.90
47765;DHT22;33529;49.242;8.670;2022-10-31T02:30:08;10.90;99.90
47765;DHT22;33529;49.242;8.670;2022-10-31T02:35:40;10.80;99.90
47765;DHT22;33529;49.242;8.670;2022-10-31T02:38:38;10.80;99.90
47765;DHT22;33529;49.242;8.670;2022-10-31T02:41:10;10.80;99.90
47765;DHT22;33529;49.242;8.670;2022-10-31T02:46:50;10.80;99.90
47765;DHT22;33529;49.242;8.670;2022-10-31T02:49:40;10.80;99.90
47765;DHT22;33529;49.242;8.670;2022-10-31T02:52:20;10.90;99.90
47765;DHT22;33529;49.242;8.670;2022-10-31T02:54:48;10.90;99.90
47765;DHT22;33529;49.242;8.670;2022-10-31T02:57:19;11.10;99.90
47765;DHT22;33529;49.242;8.670;2022-10-31T02:59:48;11.10;99.90
47765;DHT22;33529;49.242;8.670;2022-10-31T03:02:22;11.20;99.90
47765;DHT22;33529;49.242;8.670;2022-10-31T03:15:36;11.20;99.90
47765;DHT22;33529;49.242;8.670;2022-10-31T03:20:47;11.30;99.90
47765;DHT22;33529;49.242;8.670;2022-10-31T03:23:18;11.30;99.90
47765;DHT22;33529;49.242;8.670;2022-10-31T03:25:51;11.30;99.90
47765;DHT22;33529;49.242;8.670;2022-10-31T03:28:29;11.30;99.90
47765;DHT22;33529;49.242;8.670;2022-10-31T03:30:58;11.30;99.90
47765;DHT22;33529;49.242;8.670;2022-10-31T03:33:33;11.40;99.90
47765;DHT22;33529;49.242;8.670;2022-10-31T03:36:04;11.30;99.90
47765;DHT22;33529;49.242;8.670;2022-10-31T03:38:32;11.30;99.90
47765;DHT22;33529;49.242;8.670;2022-10-31T03:41:03;11.30;99.90
47765;DHT22;33529;49.242;8.670;2022-10-31T03:43:35;11.30;99.90
47765;DHT22;33529;49.242;8.670;2022-10-31T03:46:04;11.40;99.90
47765;DHT22;33529;49.242;8.670;2022-10-31T03:48:32;11.30;99.90
47765;DHT22;33529;49.242;8.670;2022-10-31T04:00:03;11.30;99.90
47765;DHT22;33529;49.242;8.670;2022-10-31T04:02:32;11.40;99.90
47765;DHT22;33529;49.242;8.670;2022-10-31T04:05:02;11.30;99.90
47765;DHT22;33529;49.242;8.670;2022-10-31T04:07:34;11.30;99.90
47765;DHT22;33529;49.242;8.670;2022-10-31T04:10:08;11.30;99.90
47765;DHT22;33529;49.242;8.670;2022-10-31T04:12:37;11.30;99.90
47765;DHT22;33529;49.242;8.670;2022-10-31T04:15:17;11.30;99.90
47765;DHT22;33529;49.242;8.670;2022-10-31T04:17:47;11.30;99.90
47765;DHT22;33529;49.242;8.670;2022-10-31T04:20:16;11.20;99.90
47765;DHT22;33529;49.242;8.670;2022-10-31T04:22:44;11.20;99.90
47765;DHT22;33529;49.242;8.670;2022-10-31T04:25:10;11.30;99.90
47765;DHT22;33529;49.242;8.670;2022-10-31T04:27:38;11.20;99.90
47765;DHT22;33529;49.242;8.670;2022-10-31T04:30:07;11.20;99.90
47765;DHT22;33529;49.242;8.670;2022-10-31T04:32:38;11.10;99.90
47765;DHT22;33529;49.242;8.670;2022-10-31T04:35:05;11.10;99.90
47765;DHT22;33529;49.242;8.670;2022-10-31T04:37:32;11.10;99.90
47765;DHT22;33529;49.242;8.670;2022-10-31T04:40:01;11.00;99.90
47765;DHT22;33529;49.242;8.670;2022-10-31T04:42:47;11.00;99.90
47765;DHT22;33529;49.242;8.670;2022-10-31T04:45:14;11.00;99.90
47765;DHT22;33529;49.242;8.670;2022-10-31T04:47:49;10.90;99.90
47765;DHT22;33529;49.242;8.670;2022-10-31T04:50:16;10.90;99.90
47765;DHT22;33529;49.242;8.670;2022-10-31T04:52:45;11.00;99.90
47765;DHT22;33529;49.242;8.670;2022-10-31T04:55:15;11.00;99.90
47765;DHT22;33529;49.242;8.670;2022-10-31T04:57:48;10.90;99.90
47765;DHT22;33529;49.242;8.670;2022-10-31T05:00:18;11.00;99.90
47765;DHT22;33529;49.242;8.670;2022-10-31T05:02:53;10.90;99.90
47765;DHT22;33529;49.242;8.670;2022-10-31T05:05:25;10.90;99.90
47765;DHT22;33529;49.242;8.670;2022-10-31T05:07:52;10.90;99.90
47765;DHT22;33529;49.242;8.670;2022-10-31T05:10:25;10.90;99.90
47765;DHT22;33529;49.242;8.670;2022-10-31T05:12:59;10.80;99.90
47765;DHT22;33529;49.242;8.670;2022-10-31T05:15:45;10.70;99.90
47765;DHT22;33529;49.242;8.670;2022-10-31T05:18:18;10.70;99.90
47765;DHT22;33529;49.242;8.670;2022-10-31T05:21:05;10.70;99.90
47765;DHT22;33529;49.242;8.670;2022-10-31T05:23:37;10.70;99.90
47765;DHT22;33529;49.242;8.670;2022-10-31T05:26:06;10.70;99.90
47765;DHT22;33529;49.242;8.670;2022-10-31T05:28:33;10.70;99.90
47765;DHT22;33529;49.242;8.670;2022-10-31T05:31:02;10.70;99.90
47765;DHT22;33529;49.242;8.670;2022-10-31T05:33:30;10.50;99.90
47765;DHT22;33529;49.242;8.670;2022-10-31T05:36:06;10.50;99.90
47765;DHT22;33529;49.242;8.670;2022-10-31T05:38:49;10.50;99.90
47765;DHT22;33529;49.242;8.670;2022-10-31T05:41:23;10.40;99.90
47765;DHT22;33529;49.242;8.670;2022-10-31T05:43:51;10.40;99.90
47765;DHT22;33529;49.242;8.670;2022-10-31T05:46:23;10.30;99.90
47765;DHT22;33529;49.242;8.670;2022-10-31T05:49:09;10.30;99.90
47765;DHT22;33529;49.242;8.670;2022-10-31T05:51:51;10.20;99.90
47765;DHT22;33529;49.242;8.670;2022-10-31T05:54:20;9.90;99.90
47765;DHT22;33529;49.242;8.670;2022-10-31T05:56:47;9.80;99.90
47765;DHT22;33529;49.242;8.670;2022-10-31T05:59:13;9.70;99.90
47765;DHT22;33529;49.242;8.670;2022-10-31T06:01:40;9.70;99.90
47765;DHT22;33529;49.242;8.670;2022-10-31T06:04:22;9.80;99.90
47765;DHT22;33529;49.242;8.670;2022-10-31T06:06:49;9.80;99.90
47765;DHT22;33529;49.242;8.670;2022-10-31T06:09:16;9.80;99.90
47765;DHT22;33529;49.242;8.670;2022-10-31T06:11:44;9.70;99.90
47765;DHT22;33529;49.242;8.670;2022-10-31T06:14:23;9.60;99.90
47765;DHT22;33529;49.242;8.670;2022-10-31T06:16:54;9.60;99.90
47765;DHT22;33529;49.242;8.670;2022-10-31T06:19:40;9.70;99.90
47765;DHT22;33529;49.242;8.670;2022-10-31T06:22:12;9.70;99.90
47765;DHT22;33529;49.242;8.670;2022-10-31T06:24:39;9.70;99.90
47765;DHT22;33529;49.242;8.670;2022-10-31T06:27:27;9.80;99.90
47765;DHT22;33529;49.242;8.670;2022-10-31T06:29:54;9.90;99.90
47765;DHT22;33529;49.242;8.670;2022-10-31T06:32:28;9.90;99.90
47765;DHT22;33529;49.242;8.670;2022-10-31T06:34:55;9.90;99.90
47765;DHT22;33529;49.242;8.670;2022-10-31T06:37:22;9.80;99.90
47765;DHT22;33529;49.242;8.670;2022-10-31T06:39:50;9.90;99.90
47765;DHT22;33529;49.242;8.670;2022-10-31T06:42:17;10.00;99.90
47765;DHT22;33529;49.242;8.670;2022-10-31T06:44:44;10.00;99.90
47765;DHT22;33529;49.242;8.670;2022-10-31T06:47:53;10.00;99.90
47765;DHT22;33529;49.242;8.670;2022-10-31T06:51:00;10.20;99.90
47765;DHT22;33529;49.242;8.670;2022-10-31T06:53:28;10.30;99.90
47765;DHT22;33529;49.242;8.670;2022-10-31T06:55:56;10.50;99.90
47765;DHT22;33529;49.242;8.670;2022-10-31T06:58:24;10.60;99.90
47765;DHT22;33529;49.242;8.670;2022-10-31T07:00:55;10.70;99.90
47765;DHT22;33529;49.242;8.670;2022-10-31T07:03:24;10.80;99.90
47765;DHT22;33529;49.242;8.670;2022-10-31T07:05:52;10.90;99.90
47765;DHT22;33529;49.242;8.670;2022-10-31T07:08:19;11.00;99.90
47765;DHT22;33529;49.242;8.670;2022-10-31T07:10:51;11.10;99.90
47765;DHT22;33529;49.242;8.670;2022-10-31T07:13:19;11.30;99.90
47765;DHT22;33529;49.242;8.670;2022-10-31T07:16:02;11.30;99.90
47765;DHT22;33529;49.242;8.670;2022-10-31T07:18:30;11.30;99.90
47765;DHT22;33529;49.242;8.670;2022-10-31T07:20:57;11.40;99.90
47765;DHT22;33529;49.242;8.670;2022-10-31T07:23:24;11.60;99.90
47765;DHT22;33529;49.242;8.670;2022-10-31T07:26:13;11.60;99.90
47765;DHT22;33529;49.242;8.670;2022-10-31T07:28:46;11.70;99.90
47765;DHT22;33529;49.242;8.670;2022-10-31T07:31:16;11.70;99.90
47765;DHT22;33529;49.242;8.670;2022-10-31T07:33:43;11.80;99.90
47765;DHT22;33529;49.242;8.670;2022-10-31T07:36:44;11.80;99.90
47765;DHT22;33529;49.242;8.670;2022-10-31T07:39:12;11.90;99.90
47765;DHT22;33529;49.242;8.670;2022-10-31T07:41:39;11.90;99.90
47765;DHT22;33529;49.242;8.670;2022-10-31T07:44:08;11.90;99.90
47765;DHT22;33529;49.242;8.670;2022-10-31T07:47:04;11.90;99.90
47765;DHT22;33529;49.242;8.670;2022-10-31T07:49:49;12.00;99.90
47765;DHT22;33529;49.242;8.670;2022-10-31T07:52:34;12.00;99.90
47765;DHT22;33529;49.242;8.670;2022-10-31T07:55:37;12.00;99.90
47765;DHT22;33529;49.242;8.670;2022-10-31T07:58:16;12.10;99.90
47765;DHT22;33529;49.242;8.670;2022-10-31T08:00:45;12.10;99.90
47765;DHT22;33529;49.242;8.670;2022-10-31T08:03:18;12.20;99.90
47765;DHT22;33529;49.242;8.670;2022-10-31T08:06:06;12.20;99.90
47765;DHT22;33529;49.242;8.670;2022-10-31T08:08:51;12.30;99.90
47765;DHT22;33529;49.242;8.670;2022-10-31T08:11:18;12.30;99.90
47765;DHT22;33529;49.242;8.670;2022-10-31T08:13:46;12.40;99.90
47765;DHT22;33529;49.242;8.670;2022-10-31T08:16:14;12.50;99.90
47765;DHT22;33529;49.242;8.670;2022-10-31T08:19:00;12.50;99.90
47765;DHT22;33529;49.242;8.670;2022-10-31T08:21:28;12.50;99.90
47765;DHT22;33529;49.242;8.670;2022-10-31T08:23:57;12.50;99.90
47765;DHT22;33529;49.242;8.670;2022-10-31T08:26:25;12.60;99.90
47765;DHT22;33529;49.242;8.670;2022-10-31T08:28:54;12.60;99.90
47765;DHT22;33529;49.242;8.670;2022-10-31T08:31:23;12.70;99.90
47765;DHT22;33529;49.242;8.670;2022-10-31T08:34:17;12.80;99.90
47765;DHT22;33529;49.242;8.670;2022-10-31T08:37:04;12.90;99.90
47765;DHT22;33529;49.242;8.670;2022-10-31T08:39:43;12.90;99.90
47765;DHT22;33529;49.242;8.670;2022-10-31T08:42:10;13.00;99.90
47765;DHT22;33529;49.242;8.670;2022-10-31T08:44:38;13.00;99.90
47765;DHT22;33529;49.242;8.670;2022-10-31T08:47:05;13.10;99.90
47765;DHT22;33529;49.242;8.670;2022-10-31T08:49:33;13.20;99.90
47765;DHT22;33529;49.242;8.670;2022-10-31T08:52:01;13.30;99.90
47765;DHT22;33529;49.242;8.670;2022-10-31T08:54:33;13.40;99.90
47765;DHT22;33529;49.242;8.670;2022-10-31T08:57:18;13.50;99.90
47765;DHT22;33529;49.242;8.670;2022-10-31T08:59:46;13.50;99.90
47765;DHT22;33529;49.242;8.670;2022-10-31T09:02:19;13.70;99.90
47765;DHT22;33529;49.242;8.670;2022-10-31T09:04:48;13.80;99.90
47765;DHT22;33529;49.242;8.670;2022-10-31T09:07:16;13.90;99.90
47765;DHT22;33529;49.242;8.670;2022-10-31T09:09:48;14.00;99.90
47765;DHT22;33529;49.242;8.670;2022-10-31T09:12:17;14.10;99.90
47765;DHT22;33529;49.242;8.670;2022-10-31T09:14:46;14.20;99.90
47765;DHT22;33529;49.242;8.670;2022-10-31T09:17:22;14.30;99.90
47765;DHT22;33529;49.242;8.670;2022-10-31T09:20:09;14.40;99.90
47765;DHT22;33529;49.242;8.670;2022-10-31T09:22:36;14.50;99.90
47765;DHT22;33529;49.242;8.670;2022-10-31T09:25:03;14.50;99.90
47765;DHT22;33529;49.242;8.670;2022-10-31T09:27:30;14.50;99.90
47765;DHT22;33529;49.242;8.670;2022-10-31T09:29:58;14.60;99.90
47765;DHT22;33529;49.242;8.670;2022-10-31T09:32:26;14.70;99.90
47765;DHT22;33529;49.242;8.670;2022-10-31T09:34:52;14.80;99.90
47765;DHT22;33529;49.242;8.670;2022-10-31T09:37:19;14.80;99.90
47765;DHT22;33529;49.242;8.670;2022-10-31T09:39:46;14.90;99.90
47765;DHT22;33529;49.242;8.670;2022-10-31T09:49:03;15.10;99.90
47765;DHT22;33529;49.242;8.670;2022-10-31T09:51:55;15.10;99.90
47765;DHT22;33529;49.242;8.670;2022-10-31T09:54:47;15.10;99.90
47765;DHT22;33529;49.242;8.670;2022-10-31T09:57:27;15.30;99.90
47765;DHT22;33529;49.242;8.670;2022-10-31T09:59:55;15.30;99.90
47765;DHT22;33529;49.242;8.670;2022-10-31T10:02:36;15.30;99.90
47765;DHT22;33529;49.242;8.670;2022-10-31T10:05:12;15.40;99.90
47765;DHT22;33529;49.242;8.670;2022-10-31T10:11:20;15.40;99.90
47765;DHT22;33529;49.242;8.670;2022-10-31T10:17:13;15.50;99.90
47765;DHT22;33529;49.242;8.670;2022-10-31T10:20:03;15.60;99.90
47765;DHT22;33529;49.242;8.670;2022-10-31T10:25:16;15.60;99.90
47765;DHT22;33529;49.242;8.670;2022-10-31T10:28:02;15.60;99.90
47765;DHT22;33529;49.242;8.670;2022-10-31T10:33:25;15.70;99.90
47765;DHT22;33529;49.242;8.670;2022-10-31T10:36:04;15.80;99.90
47765;DHT22;33529;49.242;8.670;2022-10-31T10:41:14;15.80;99.90
47765;DHT22;33529;49.242;8.670;2022-10-31T10:43:42;15.90;99.90
47765;DHT22;33529;49.242;8.670;2022-10-31T10:49:19;16.10;99.90
47765;DHT22;33529;49.242;8.670;2022-10-31T10:51:52;16.10;99.90
47765;DHT22;33529;49.242;8.670;2022-10-31T11:00:20;16.40;99.90
47765;DHT22;33529;49.242;8.670;2022-10-31T11:02:48;16.60;99.90
47765;DHT22;33529;49.242;8.670;2022-10-31T11:07:50;17.00;99.90
47765;DHT22;33529;49.242;8.670;2022-10-31T11:10:17;17.00;99.90
47765;DHT22;33529;49.242;8.670;2022-10-31T11:13:31;17.00;99.90
47765;DHT22;33529;49.242;8.670;2022-10-31T11:15:49;17.00;99.90
47765;DHT22;33529;49.242;8.670;2022-10-31T11:18:24;17.10;99.90
47765;DHT22;33529;49.242;8.670;2022-10-31T11:20:59;17.30;99.90
47765;DHT22;33529;49.242;8.670;2022-10-31T11:23:27;17.40;99.90
47765;DHT22;33529;49.242;8.670;2022-10-31T11:26:05;17.50;99.90
47765;DHT22;33529;49.242;8.670;2022-10-31T11:28:33;17.60;99.90
47765;DHT22;33529;49.242;8.670;2022-10-31T11:31:10;17.60;99.90
47765;DHT22;33529;49.242;8.670;2022-10-31T11:33:45;17.70;99.90
47765;DHT22;33529;49.242;8.670;2022-10-31T11:36:30;17.70;99.90
47765;DHT22;33529;49.242;8.670;2022-10-31T11:38:59;17.70;99.90
47765;DHT22;33529;49.242;8.670;2022-10-31T11:41:35;17.90;99.90
47765;DHT22;33529;49.242;8.670;2022-10-31T11:44:20;18.00;99.90
47765;DHT22;33529;49.242;8.670;2022-10-31T11:46:51;18.20;99.90
47765;DHT22;33529;49.242;8.670;2022-10-31T11:52:31;18.30;99.90
47765;DHT22;33529;49.242;8.670;2022-10-31T11:55:00;18.30;99.90
47765;DHT22;33529;49.242;8.670;2022-10-31T11:57:46;18.30;99.90
47765;DHT22;33529;49.242;8.670;2022-10-31T12:00:28;18.20;99.90
47765;DHT22;33529;49.242;8.670;2022-10-31T12:03:29;18.20;99.90
47765;DHT22;33529;49.242;8.670;2022-10-31T12:06:10;18.10;99.90
47765;DHT22;33529;49.242;8.670;2022-10-31T12:08:40;18.10;99.90
47765;DHT22;33529;49.242;8.670;2022-10-31T12:25:39;18.70;99.90
47765;DHT22;33529;49.242;8.670;2022-10-31T12:33:34;18.80;99.90
47765;DHT22;33529;49.242;8.670;2022-10-31T12:39:18;18.80;99.90
47765;DHT22;33529;49.242;8.670;2022-10-31T12:42:14;18.60;99.90
47765;DHT22;33529;49.242;8.670;2022-10-31T12:45:12;18.50;99.90
47765;DHT22;33529;49.242;8.670;2022-10-31T12:47:57;18.50;99.90
47765;DHT22;33529;49.242;8.670;2022-10-31T12:50:38;18.60;99.90
47765;DHT22;33529;49.242;8.670;2022-10-31T12:53:25;18.70;99.90
47765;DHT22;33529;49.242;8.670;2022-10-31T12:59:01;18.70;99.90
47765;DHT22;33529;49.242;8.670;2022-10-31T13:01:39;18.80;99.90
47765;DHT22;33529;49.242;8.670;2022-10-31T13:07:07;19.00;99.90
47765;DHT22;33529;49.242;8.670;2022-10-31T13:09:39;19.00;99.90
47765;DHT22;33529;49.242;8.670;2022-10-31T13:12:15;18.60;99.90
47765;DHT22;33529;49.242;8.670;2022-10-31T13:14:58;18.50;99.90
47765;DHT22;33529;49.242;8.670;2022-10-31T13:17:33;18.40;99.90
47765;DHT22;33529;49.242;8.670;2022-10-31T13:20:26;18.40;99.90
47765;DHT22;33529;49.242;8.670;2022-10-31T13:23:00;18.40;99.90
47765;DHT22;33529;49.242;8.670;2022-10-31T13:25:52;18.40;99.90
47765;DHT22;33529;49.242;8.670;2022-10-31T13:28:45;18.40;99.90
47765;DHT22;33529;49.242;8.670;2022-10-31T13:31:13;18.50;99.90
47765;DHT22;33529;49.242;8.670;2022-10-31T13:33:47;18.50;99.90
47765;DHT22;33529;49.242;8.670;2022-10-31T13:36:39;18.50;99.90
47765;DHT22;33529;49.242;8.670;2022-10-31T13:39:42;18.70;99.90
47765;DHT22;33529;49.242;8.670;2022-10-31T13:42:25;18.90;99.90
47765;DHT22;33529;49.242;8.670;2022-10-31T13:47:40;19.30;99.90
47765;DHT22;33529;49.242;8.670;2022-10-31T13:50:26;19.50;99.90
47765;DHT22;33529;49.242;8.670;2022-10-31T13:55:50;19.60;99.90
47765;DHT22;33529;49.242;8.670;2022-10-31T13:58:27;19.60;99.90
47765;DHT22;33529;49.242;8.670;2022-10-31T14:03:39;19.40;99.90
47765;DHT22;33529;49.242;8.670;2022-10-31T14:12:07;18.80;99.90
47765;DHT22;33529;49.242;8.670;2022-10-31T14:14:49;18.70;99.90
47765;DHT22;33529;49.242;8.670;2022-10-31T14:17:23;18.40;99.90
47765;DHT22;33529;49.242;8.670;2022-10-31T14:22:40;18.10;99.90
47765;DHT22;33529;49.242;8.670;2022-10-31T14:27:54;17.90;99.90
47765;DHT22;33529;49.242;8.670;2022-10-31T14:30:23;17.80;99.90
47765;DHT22;33529;49.242;8.670;2022-10-31T14:33:19;17.80;99.90
47765;DHT22;33529;49.242;8.670;2022-10-31T14:36:08;17.70;99.90
47765;DHT22;33529;49.242;8.670;2022-10-31T14:52:57;17.40;99.90
47765;DHT22;33529;49.242;8.670;2022-10-31T14:55:27;17.30;99.90
47765;DHT22;33529;49.242;8.670;2022-10-31T14:58:00;17.10;99.90
47765;DHT22;33529;49.242;8.670;2022-10-31T15:00:29;17.00;99.90
47765;DHT22;33529;49.242;8.670;2022-10-31T15:05:52;17.00;99.90
47765;DHT22;33529;49.242;8.670;2022-10-31T15:08:37;16.90;99.90
47765;DHT22;33529;49.242;8.670;2022-10-31T15:11:16;16.90;99.90
47765;DHT22;33529;49.242;8.670;2022-10-31T15:13:48;16.80;99.90
47765;DHT22;33529;49.242;8.670;2022-10-31T15:16:28;16.80;99.90
47765;DHT22;33529;49.242;8.670;2022-10-31T15:19:04;16.90;99.90
47765;DHT22;33529;49.242;8.670;2022-10-31T15:21:31;16.90;99.90
47765;DHT22;33529;49.242;8.670;2022-10-31T15:24:01;17.00;99.90
47765;DHT22;33529;49.242;8.670;2022-10-31T15:26:34;16.90;99.90
47765;DHT22;33529;49.242;8.670;2022-10-31T15:29:11;16.90;99.90
47765;DHT22;33529;49.242;8.670;2022-10-31T15:31:38;17.00;99.90
47765;DHT22;33529;49.242;8.670;2022-10-31T15:34:18;16.70;99.90
47765;DHT22;33529;49.242;8.670;2022-10-31T15:36:48;16.70;99.90
47765;DHT22;33529;49.242;8.670;2022-10-31T15:39:17;16.60;99.90
47765;DHT22;33529;49.242;8.670;2022-10-31T15:41:55;16.70;99.90
47765;DHT22;33529;49.242;8.670;2022-10-31T15:44:32;16.70;99.90
47765;DHT22;33529;49.242;8.670;2022-10-31T15:47:02;16.70;99.90
47765;DHT22;33529;49.242;8.670;2022-10-31T15:49:40;16.70;99.90
47765;DHT22;33529;49.242;8.670;2022-10-31T15:54:54;16.60;99.90
47765;DHT22;33529;49.242;8.670;2022-10-31T15:57:23;16.50;99.90
47765;DHT22;33529;49.242;8.670;2022-10-31T15:59:50;16.50;99.90
47765;DHT22;33529;49.242;8.670;2022-10-31T16:02:21;16.40;99.90
47765;DHT22;33529;49.242;8.670;2022-10-31T16:04:57;16.40;99.90
47765;DHT22;33529;49.242;8.670;2022-10-31T16:07:25;16.40;99.90
47765;DHT22;33529;49.242;8.670;2022-10-31T16:09:57;16.30;99.90
47765;DHT22;33529;49.242;8.670;2022-10-31T16:12:29;16.20;99.90
47765;DHT22;33529;49.242;8.670;2022-10-31T16:14:56;16.10;99.90
47765;DHT22;33529;49.242;8.670;2022-10-31T16:17:25;16.10;99.90
47765;DHT22;33529;49.242;8.670;2022-10-31T16:20:02;16.00;99.90
47765;DHT22;33529;49.242;8.670;2022-10-31T16:22:35;16.00;99.90
47765;DHT22;33529;49.242;8.670;2022-10-31T16:25:14;16.00;99.90
47765;DHT22;33529;49.242;8.670;2022-10-31T16:27:49;15.80;99.90
47765;DHT22;33529;49.242;8.670;2022-10-31T16:30:44;15.80;99.90
47765;DHT22;33529;49.242;8.670;2022-10-31T16:35:47;15.60;99.90
47765;DHT22;33529;49.242;8.670;2022-10-31T16:38:14;15.60;99.90
47765;DHT22;33529;49.242;8.670;2022-10-31T16:40:41;15.50;99.90
47765;DHT22;33529;49.242;8.670;2022-10-31T16:43:11;15.40;99.90
47765;DHT22;33529;49.242;8.670;2022-10-31T16:45:44;15.40;99.90
47765;DHT22;33529;49.242;8.670;2022-10-31T16:48:14;15.30;99.90
47765;DHT22;33529;49.242;8.670;2022-10-31T16:50:42;15.30;99.90
47765;DHT22;33529;49.242;8.670;2022-10-31T16:53:10;15.30;99.90
47765;DHT22;33529;49.242;8.670;2022-10-31T16:56:01;15.30;99.90
47765;DHT22;33529;49.242;8.670;2022-10-31T16:58:30;15.20;99.90
47765;DHT22;33529;49.242;8.670;2022-10-31T17:01:00;15.20;99.90
47765;DHT22;33529;49.242;8.670;2022-10-31T17:03:27;15.20;99.90
47765;DHT22;33529;49.242;8.670;2022-10-31T17:05:54;15.20;99.90
47765;DHT22;33529;49.242;8.670;2022-10-31T17:08:22;15.20;99.90
47765;DHT22;33529;49.242;8.670;2022-10-31T17:10:54;15.20;99.90
47765;DHT22;33529;49.242;8.670;2022-10-31T17:13:27;15.10;99.90
47765;DHT22;33529;49.242;8.670;2022-10-31T17:15:57;15.10;99.90
47765;DHT22;33529;49.242;8.670;2022-10-31T17:18:24;15.10;99.90
47765;DHT22;33529;49.242;8.670;2022-10-31T17:21:01;15.10;99.90
47765;DHT22;33529;49.242;8.670;2022-10-31T17:23:29;15.00;99.90
47765;DHT22;33529;49.242;8.670;2022-10-31T17:25:56;14.90;99.90
47765;DHT22;33529;49.242;8.670;2022-10-31T17:28:23;14.90;99.90
47765;DHT22;33529;49.242;8.670;2022-10-31T17:30:54;14.80;99.90
47765;DHT22;33529;49.242;8.670;2022-10-31T17:33:21;14.80;99.90
47765;DHT22;33529;49.242;8.670;2022-10-31T17:35:48;14.80;99.90
47765;DHT22;33529;49.242;8.670;2022-10-31T17:38:15;14.70;99.90
47765;DHT22;33529;49.242;8.670;2022-10-31T17:40:42;14.70;99.90
47765;DHT22;33529;49.242;8.670;2022-10-31T17:43:10;14.60;99.90
47765;DHT22;33529;49.242;8.670;2022-10-31T17:45:40;14.60;99.90
47765;DHT22;33529;49.242;8.670;2022-10-31T17:48:10;14.60;99.90
47765;DHT22;33529;49.242;8.670;2022-10-31T17:50:38;14.50;99.90
47765;DHT22;33529;49.242;8.670;2022-10-31T17:53:05;14.50;99.90
47765;DHT22;33529;49.242;8.670;2022-10-31T17:55:32;14.40;99.90
47765;DHT22;33529;49.242;8.670;2022-10-31T17:58:03;14.50;99.90
47765;DHT22;33529;49.242;8.670;2022-10-31T18:00:30;14.30;99.90
47765;DHT22;33529;49.242;8.670;2022-10-31T18:02:56;14.10;99.90
47765;DHT22;33529;49.242;8.670;2022-10-31T18:05:23;14.10;99.90
47765;DHT22;33529;49.242;8.670;2022-10-31T18:07:50;14.10;99.90
47765;DHT22;33529;49.242;8.670;2022-10-31T18:10:17;14.00;99.90
47765;DHT22;33529;49.242;8.670;2022-10-31T18:12:44;13.90;99.90
47765;DHT22;33529;49.242;8.670;2022-10-31T18:15:11;14.00;99.90
47765;DHT22;33529;49.242;8.670;2022-10-31T18:17:38;14.00;99.90
47765;DHT22;33529;49.242;8.670;2022-10-31T18:20:08;14.00;99.90
47765;DHT22;33529;49.242;8.670;2022-10-31T18:22:35;14.10;99.90
47765;DHT22;33529;49.242;8.670;2022-10-31T18:25:03;14.10;99.90
47765;DHT22;33529;49.242;8.670;2022-10-31T18:27:30;14.10;99.90
47765;DHT22;33529;49.242;8.670;2022-10-31T18:29:57;14.10;99.90
47765;DHT22;33529;49.242;8.670;2022-10-31T18:32:24;13.90;99.90